| time (UTC) | temp F | wind direction | speed knots | gust knots | rain 1hr in | rain 24hr in | rain mn in | humidity % | barometer mb |
| 20260504174854 | 74 | 135 | 5.2 | 5.2 | 0.00 | 0.00 | 0.00 | 38 | 1010.8 |
| 20260504173854 | 74 | 135 | 3.5 | 4.3 | 0.00 | 0.00 | 0.00 | 37 | 1010.8 |
| 20260504172853 | 74 | 225 | 2.6 | 4.3 | 0.00 | 0.00 | 0.00 | 37 | 1011.2 |
| 20260504171852 | 73 | 180 | 5.2 | 5.2 | 0.00 | 0.00 | 0.00 | 37 | 1011.2 |
| 20260504170851 | 73 | 90 | 3.5 | 3.5 | 0.00 | 0.00 | 0.00 | 38 | 1011.5 |
| 20260504150737 | 66 | 225 | 1.7 | 2.6 | 0.00 | 0.00 | 0.00 | 45 | 1012.5 |
| 20260504140629 | 61 | 157 | 1.7 | 1.7 | 0.00 | 0.00 | 0.00 | 51 | 1012.9 |
| 20260504130625 | 55 | 135 | 2.6 | 2.6 | 0.00 | 0.00 | 0.00 | 60 | 1013.5 |
| 20260504110443 | 47 | 112 | 0.0 | 0.0 | 0.00 | 0.00 | 0.00 | 76 | 1013.9 |
| 20260504100407 | 49 | 112 | 0.0 | 0.0 | 0.00 | 0.00 | 0.00 | 72 | 1013.9 |
| 20260504081326 | 48 | 135 | 0.0 | 0.0 | 0.00 | 0.00 | 0.00 | 76 | 1014.2 |
| 20260504080325 | 48 | 292 | 0.0 | 0.0 | 0.00 | 0.00 | 0.00 | 76 | 1013.9 |
| 20260504070219 | 47 | 315 | 0.0 | 0.0 | 0.00 | 0.00 | 0.00 | 75 | 1014.2 |
| 20260504060213 | 46 | 315 | 0.0 | 0.0 | 0.00 | 0.00 | 0.00 | 75 | 1014.6 |
| 20260504050208 | 46 | 315 | 0.0 | 0.0 | 0.00 | 0.00 | 0.00 | 73 | 1014.2 |
| 20260504045136 | 45 | 315 | 0.0 | 0.0 | 0.00 | 0.00 | 0.00 | 73 | 1014.2 |
| 20260504044134 | 45 | 315 | 0.0 | 0.0 | 0.00 | 0.00 | 0.00 | 73 | 1014.6 |
| 20260504043134 | 45 | 315 | 0.0 | 0.0 | 0.00 | 0.00 | 0.00 | 73 | 1014.2 |
| 20260504042133 | 45 | 315 | 0.0 | 0.0 | 0.00 | 0.00 | 0.00 | 73 | 1014.2 |
| 20260504041132 | 45 | 315 | 0.0 | 0.0 | 0.00 | 0.00 | 0.00 | 72 | 1014.2 |
| 20260504040131 | 45 | 315 | 0.0 | 0.0 | 0.00 | 0.00 | 0.00 | 71 | 1014.2 |
| 20260504035130 | 45 | 315 | 0.0 | 0.0 | 0.00 | 0.00 | 0.00 | 70 | 1014.2 |
| 20260504034129 | 45 | 315 | 0.0 | 0.0 | 0.00 | 0.00 | 0.00 | 70 | 1014.2 |
| 20260504033129 | 46 | 315 | 0.0 | 0.0 | 0.00 | 0.00 | 0.00 | 69 | 1014.2 |
| 20260504032128 | 46 | 315 | 0.0 | 0.0 | 0.00 | 0.00 | 0.00 | 68 | 1014.2 |
| 20260504031127 | 46 | 315 | 0.0 | 0.0 | 0.00 | 0.00 | 0.00 | 67 | 1014.2 |
| 20260504030126 | 46 | 315 | 0.0 | 0.0 | 0.00 | 0.00 | 0.00 | 66 | 1014.2 |
| 20260504025055 | 47 | 315 | 0.0 | 0.0 | 0.00 | 0.00 | 0.00 | 65 | 1013.9 |
| 20260504024054 | 47 | 315 | 0.0 | 0.0 | 0.00 | 0.00 | 0.00 | 64 | 1014.2 |
| 20260504023054 | 48 | 315 | 0.0 | 0.0 | 0.00 | 0.00 | 0.00 | 62 | 1013.9 |
| 20260504022053 | 48 | 315 | 0.0 | 0.0 | 0.00 | 0.00 | 0.00 | 61 | 1013.9 |
| 20260504021020 | 48 | 315 | 0.0 | 0.0 | 0.00 | 0.00 | 0.00 | 59 | 1013.9 |
| 20260504020020 | 49 | 315 | 0.0 | 0.0 | 0.00 | 0.00 | 0.00 | 58 | 1013.5 |
| 20260504015018 | 50 | 315 | 0.0 | 0.0 | 0.00 | 0.00 | 0.00 | 57 | 1013.5 |
| 20260504014017 | 50 | 315 | 0.0 | 0.0 | 0.00 | 0.00 | 0.00 | 55 | 1013.5 |
| 20260504013017 | 50 | 315 | 0.0 | 0.0 | 0.00 | 0.00 | 0.00 | 55 | 1013.5 |
| 20260504012016 | 51 | 315 | 0.0 | 0.0 | 0.00 | 0.00 | 0.00 | 54 | 1013.2 |
| 20260504011014 | 52 | 315 | 0.0 | 0.0 | 0.00 | 0.00 | 0.00 | 54 | 1013.5 |
| 20260504005943 | 52 | 315 | 0.0 | 0.0 | 0.00 | 0.00 | 0.00 | 51 | 1013.5 |
| 20260504004941 | 53 | 315 | 0.0 | 0.0 | 0.00 | 0.00 | 0.00 | 50 | 1013.2 |
| 20260504003940 | 54 | 315 | 0.0 | 0.0 | 0.00 | 0.00 | 0.00 | 51 | 1013.2 |
| 20260504002938 | 55 | 315 | 0.0 | 0.0 | 0.00 | 0.00 | 0.00 | 50 | 1013.2 |
| 20260504001938 | 56 | 315 | 0.0 | 0.0 | 0.00 | 0.00 | 0.00 | 46 | 1013.2 |
| 20260504000937 | 57 | 315 | 0.0 | 0.0 | 0.00 | 0.00 | 0.00 | 44 | 1013.2 |
| 20260503235936 | 58 | 315 | 0.0 | 0.0 | 0.00 | 0.00 | 0.00 | 40 | 1012.9 |
| 20260503234935 | 60 | 315 | 0.0 | 0.0 | 0.00 | 0.00 | 0.00 | 38 | 1012.9 |
| 20260503233935 | 60 | 315 | 0.0 | 0.0 | 0.00 | 0.00 | 0.00 | 35 | 1012.9 |
| 20260503232934 | 61 | 315 | 0.0 | 4.3 | 0.00 | 0.00 | 0.00 | 33 | 1012.5 |
| 20260503231933 | 61 | 247 | 0.0 | 0.0 | 0.00 | 0.00 | 0.00 | 33 | 1012.5 |
| 20260503230933 | 61 | 202 | 0.0 | 1.7 | 0.00 | 0.00 | 0.00 | 33 | 1012.5 |
| 20260503225932 | 62 | 202 | 0.0 | 1.7 | 0.00 | 0.00 | 0.00 | 32 | 1012.5 |
| 20260503224931 | 62 | 45 | 0.9 | 0.9 | 0.00 | 0.00 | 0.00 | 33 | 1012.5 |
| 20260503223827 | 62 | 135 | 0.0 | 1.7 | 0.00 | 0.00 | 0.00 | 32 | 1012.5 |
| 20260503222755 | 62 | 315 | 2.6 | 3.5 | 0.00 | 0.00 | 0.00 | 30 | 1012.9 |
| 20260503221755 | 63 | 315 | 0.0 | 1.7 | 0.00 | 0.00 | 0.00 | 30 | 1012.9 |
| 20260503220754 | 63 | 337 | 0.0 | 0.0 | 0.00 | 0.00 | 0.00 | 30 | 1012.5 |
| 20260503215753 | 63 | 22 | 0.0 | 2.6 | 0.00 | 0.00 | 0.00 | 30 | 1012.5 |
| 20260503214752 | 63 | 0 | 5.2 | 5.2 | 0.00 | 0.00 | 0.00 | 30 | 1012.9 |
| 20260503213752 | 64 | 225 | 2.6 | 2.6 | 0.00 | 0.00 | 0.00 | 29 | 1012.9 |
| 20260503212751 | 65 | 225 | 4.3 | 4.3 | 0.00 | 0.00 | 0.00 | 29 | 1012.9 |
| 20260503211750 | 66 | 247 | 1.7 | 5.2 | 0.00 | 0.00 | 0.00 | 29 | 1012.9 |
| 20260503210749 | 66 | 247 | 0.0 | 2.6 | 0.00 | 0.00 | 0.00 | 31 | 1012.9 |
| 20260503205748 | 65 | 202 | 0.9 | 2.6 | 0.00 | 0.00 | 0.00 | 32 | 1012.9 |
| 20260503204716 | 65 | 270 | 0.9 | 3.5 | 0.00 | 0.00 | 0.00 | 32 | 1012.9 |
| 20260503203716 | 64 | 45 | 0.0 | 2.6 | 0.00 | 0.00 | 0.00 | 33 | 1012.9 |
| 20260503202715 | 63 | 270 | 0.0 | 6.1 | 0.00 | 0.00 | 0.00 | 34 | 1012.9 |
| 20260503201642 | 63 | 45 | 2.6 | 2.6 | 0.00 | 0.00 | 0.00 | 33 | 1013.2 |
| 20260503200642 | 63 | 22 | 1.7 | 5.2 | 0.00 | 0.00 | 0.00 | 34 | 1013.2 |
| 20260503195641 | 63 | 0 | 0.0 | 4.3 | 0.00 | 0.00 | 0.00 | 34 | 1013.5 |
| 20260503194640 | 61 | 270 | 1.7 | 2.6 | 0.00 | 0.00 | 0.00 | 36 | 1013.5 |
| 20260503193639 | 61 | 270 | 1.7 | 3.5 | 0.00 | 0.00 | 0.00 | 34 | 1013.9 |
| 20260503192639 | 61 | 270 | 1.7 | 1.7 | 0.00 | 0.00 | 0.00 | 35 | 1013.9 |
| 20260503191638 | 62 | 337 | 0.9 | 4.3 | 0.00 | 0.00 | 0.00 | 35 | 1014.2 |
| 20260503190637 | 60 | 225 | 3.5 | 3.5 | 0.00 | 0.00 | 0.00 | 36 | 1014.2 |
| 20260503185636 | 60 | 337 | 1.7 | 9.6 | 0.00 | 0.00 | 0.00 | 37 | 1014.2 |
| 20260503184635 | 60 | 45 | 0.0 | 1.7 | 0.00 | 0.00 | 0.00 | 36 | 1014.6 |
| 20260503183635 | 61 | 0 | 2.6 | 3.5 | 0.00 | 0.00 | 0.00 | 37 | 1014.6 |
| 20260503182603 | 60 | 337 | 3.5 | 4.3 | 0.00 | 0.00 | 0.00 | 37 | 1014.9 |
| 20260503181602 | 59 | 315 | 2.6 | 2.6 | 0.00 | 0.00 | 0.00 | 37 | 1014.6 |
| 20260503180602 | 60 | 45 | 0.0 | 2.6 | 0.00 | 0.00 | 0.00 | 37 | 1014.9 |
| 20260503175601 | 59 | 67 | 1.7 | 8.7 | 0.00 | 0.00 | 0.00 | 38 | 1014.9 |